createdAt,value
2022-09-07T00:00:52.197Z,2.00
2022-09-07T00:03:19.073Z,2.20
2022-09-07T00:05:47.705Z,1.67
2022-09-07T00:08:15.707Z,1.80
2022-09-07T00:10:42.167Z,1.70
2022-09-07T00:13:09.559Z,1.50
2022-09-07T00:15:40.204Z,1.90
2022-09-07T00:18:06.763Z,1.48
2022-09-07T00:20:33.280Z,1.70
2022-09-07T00:22:59.735Z,1.92
2022-09-07T00:25:26.222Z,1.80
2022-09-07T00:27:52.740Z,1.63
2022-09-07T00:30:19.207Z,2.28
2022-09-07T00:32:45.647Z,1.50
2022-09-07T00:35:12.669Z,1.58
2022-09-07T00:37:39.178Z,1.67
2022-09-07T00:40:06.151Z,1.98
2022-09-07T00:42:32.719Z,1.50
2022-09-07T00:45:06.843Z,1.73
2022-09-07T00:47:45.542Z,2.03
2022-09-07T00:50:20.898Z,1.38
2022-09-07T00:52:49.247Z,1.88
2022-09-07T00:55:16.379Z,1.60
2022-09-07T00:57:46.563Z,1.88
2022-09-07T01:00:13.241Z,1.80
2022-09-07T01:02:40.112Z,1.85
2022-09-07T01:05:19.631Z,1.73
2022-09-07T01:07:46.040Z,2.00
2022-09-07T01:10:13.005Z,1.77
2022-09-07T01:12:39.469Z,1.92
2022-09-07T01:15:06.491Z,2.20
2022-09-07T01:17:52.035Z,1.90
2022-09-07T01:20:31.595Z,2.33
2022-09-07T01:23:22.326Z,2.30
2022-09-07T01:26:03.706Z,2.97
2022-09-07T01:28:32.587Z,2.40
2022-09-07T01:30:59.582Z,2.28
2022-09-07T01:33:45.834Z,2.38
2022-09-07T01:36:29.091Z,2.53
2022-09-07T01:38:59.879Z,2.30
2022-09-07T01:41:49.366Z,2.25
2022-09-07T01:44:23.557Z,2.55
2022-09-07T01:46:53.890Z,2.22
2022-09-07T01:49:21.215Z,2.70
2022-09-07T01:51:51.112Z,3.08
2022-09-07T01:54:24.975Z,3.05
2022-09-07T01:56:55.108Z,2.33
2022-09-07T01:59:31.874Z,2.97
2022-09-07T02:02:07.702Z,2.35
2022-09-07T02:04:39.247Z,3.58
2022-09-07T02:07:12.241Z,2.58
2022-09-07T02:09:52.339Z,2.75
2022-09-07T02:12:30.016Z,3.00
2022-09-07T02:15:00.093Z,2.47
2022-09-07T02:17:33.731Z,2.97
2022-09-07T02:20:08.068Z,2.55
2022-09-07T02:25:03.863Z,2.58
2022-09-07T02:27:41.807Z,2.78
2022-09-07T02:30:09.524Z,2.60
2022-09-07T02:32:36.097Z,2.45
2022-09-07T02:35:02.927Z,2.17
2022-09-07T02:37:29.365Z,2.90
2022-09-07T02:39:56.066Z,2.60
2022-09-07T02:42:24.597Z,2.40
2022-09-07T02:44:51.131Z,2.92
2022-09-07T02:47:49.530Z,3.03
2022-09-07T02:50:44.752Z,2.38
2022-09-07T02:53:40.084Z,2.78
2022-09-07T02:56:17.331Z,2.85
2022-09-07T02:59:01.052Z,3.13
2022-09-07T03:01:36.984Z,2.85
2022-09-07T03:04:25.340Z,2.80
2022-09-07T03:07:07.778Z,3.50
2022-09-07T03:09:37.800Z,3.70
2022-09-07T03:12:05.329Z,2.75
2022-09-07T03:14:33.661Z,3.38
2022-09-07T03:17:00.640Z,3.33
2022-09-07T03:19:27.460Z,3.15
2022-09-07T03:21:54.109Z,3.47
2022-09-07T03:24:20.519Z,3.92
2022-09-07T03:26:54.259Z,3.55
2022-09-07T03:29:20.802Z,2.92
2022-09-07T03:31:47.436Z,2.78
2022-09-07T03:34:14.080Z,2.75
2022-09-07T03:36:40.500Z,2.97
2022-09-07T03:39:07.100Z,2.47
2022-09-07T03:41:34.068Z,2.72
2022-09-07T03:44:07.422Z,2.92
2022-09-07T03:46:34.307Z,3.08
2022-09-07T03:49:00.801Z,2.65
2022-09-07T03:51:27.269Z,2.65
2022-09-07T03:53:54.468Z,2.83
2022-09-07T03:56:23.178Z,2.70
2022-09-07T03:58:50.353Z,2.60
2022-09-07T04:01:19.674Z,2.78
2022-09-07T04:03:46.742Z,2.97
2022-09-07T04:06:13.337Z,3.10
2022-09-07T04:08:40.541Z,3.47
2022-09-07T04:11:08.432Z,3.95
2022-09-07T04:13:36.351Z,4.20
2022-09-07T04:16:21.034Z,3.65
2022-09-07T04:21:17.505Z,3.80
2022-09-07T04:23:44.238Z,4.68
2022-09-07T04:26:15.134Z,3.72
2022-09-07T04:28:41.647Z,4.20
2022-09-07T04:31:08.173Z,4.20
2022-09-07T04:33:34.722Z,4.22
2022-09-07T04:36:01.820Z,3.83
2022-09-07T04:38:28.868Z,3.85
2022-09-07T04:41:10.023Z,3.47
2022-09-07T04:43:37.780Z,3.28
2022-09-07T04:46:08.922Z,3.50
2022-09-07T04:48:35.427Z,3.38
2022-09-07T04:51:06.008Z,3.17
2022-09-07T04:53:33.926Z,3.20
2022-09-07T04:56:00.455Z,3.70
2022-09-07T04:58:27.552Z,3.38
2022-09-07T05:00:54.035Z,3.30
2022-09-07T05:03:21.131Z,3.05
2022-09-07T05:05:47.515Z,3.03
2022-09-07T05:08:14.075Z,3.55
2022-09-07T05:10:40.486Z,3.60
2022-09-07T05:13:06.899Z,3.95
2022-09-07T05:15:33.680Z,3.40
2022-09-07T05:18:00.076Z,3.40
2022-09-07T05:20:26.582Z,2.50
2022-09-07T05:22:59.355Z,2.95
2022-09-07T05:25:30.084Z,3.05
2022-09-07T05:27:56.593Z,2.88
2022-09-07T05:33:09.501Z,3.80
2022-09-07T05:35:35.935Z,2.65
2022-09-07T05:38:02.351Z,3.38
2022-09-07T05:40:31.744Z,3.03
2022-09-07T05:42:58.692Z,3.00
2022-09-07T05:45:25.203Z,2.50
2022-09-07T05:47:51.798Z,2.55
2022-09-07T05:50:18.303Z,3.20
2022-09-07T05:52:46.000Z,2.28
2022-09-07T05:55:28.784Z,2.60
2022-09-07T05:57:56.119Z,2.75
2022-09-07T06:00:22.559Z,2.75
2022-09-07T06:02:49.097Z,3.10
2022-09-07T06:05:15.568Z,3.38
2022-09-07T06:07:42.082Z,2.80
2022-09-07T06:12:55.514Z,3.30
2022-09-07T06:15:21.901Z,3.20
2022-09-07T06:17:48.720Z,2.70
2022-09-07T06:20:15.146Z,2.92
2022-09-07T06:22:41.573Z,3.00
2022-09-07T06:25:08.330Z,3.20
2022-09-07T06:27:34.769Z,3.38
2022-09-07T06:30:01.358Z,3.20
2022-09-07T06:32:43.329Z,3.72
2022-09-07T06:35:10.646Z,3.20
2022-09-07T06:37:37.422Z,3.50
2022-09-07T06:40:04.602Z,3.40
2022-09-07T06:42:31.055Z,3.50
2022-09-07T06:44:58.508Z,3.67
2022-09-07T06:47:24.947Z,4.03
2022-09-07T06:49:51.339Z,3.78
2022-09-07T06:52:17.743Z,4.20
2022-09-07T06:54:59.897Z,3.45
2022-09-07T06:57:27.022Z,3.05
2022-09-07T06:59:53.443Z,3.42
2022-09-07T07:02:19.888Z,3.50
2022-09-07T07:04:46.608Z,3.38
2022-09-07T07:07:13.906Z,4.40
2022-09-07T07:09:41.543Z,3.90
2022-09-07T07:12:08.107Z,4.65
2022-09-07T07:14:37.370Z,4.25
2022-09-07T07:17:06.331Z,4.22
2022-09-07T07:19:32.786Z,4.22
2022-09-07T07:22:14.309Z,3.78
2022-09-07T07:24:45.594Z,3.63
2022-09-07T07:27:12.098Z,2.95
2022-09-07T07:29:38.671Z,3.88
2022-09-07T07:32:05.180Z,4.13
2022-09-07T07:34:31.960Z,3.90
2022-09-07T07:36:58.352Z,3.70
2022-09-07T07:42:12.288Z,3.63
2022-09-07T07:44:38.701Z,3.83
2022-09-07T07:47:05.102Z,3.85
2022-09-07T07:49:31.473Z,2.92
2022-09-07T07:54:46.085Z,3.55
2022-09-07T07:57:12.565Z,3.55
2022-09-07T07:59:39.301Z,3.17
2022-09-07T08:02:08.518Z,3.75
2022-09-07T08:04:35.476Z,3.88
2022-09-07T08:07:08.669Z,4.07
2022-09-07T08:09:37.201Z,3.35
2022-09-07T08:12:03.768Z,3.85
2022-09-07T08:14:30.145Z,3.58
2022-09-07T08:16:56.521Z,2.90
2022-09-07T08:19:22.872Z,2.80
2022-09-07T08:21:49.201Z,3.08
2022-09-07T08:24:16.019Z,2.88
2022-09-07T08:26:43.669Z,2.80
2022-09-07T08:29:10.038Z,3.75
2022-09-07T08:31:36.829Z,3.42
2022-09-07T08:34:03.320Z,3.10
2022-09-07T08:36:31.695Z,2.83
2022-09-07T08:38:58.035Z,3.33
2022-09-07T08:41:46.536Z,3.80
2022-09-07T08:44:24.583Z,3.20
2022-09-07T08:47:06.934Z,3.47
2022-09-07T08:49:48.162Z,3.40
2022-09-07T08:52:20.119Z,2.70
2022-09-07T08:54:53.487Z,3.10
2022-09-07T08:57:23.142Z,2.95
2022-09-07T09:00:05.820Z,3.00
2022-09-07T09:02:36.474Z,2.90
2022-09-07T09:05:29.781Z,3.30
2022-09-07T09:08:31.504Z,3.55
2022-09-07T09:11:29.988Z,3.28
2022-09-07T09:14:21.228Z,3.80
2022-09-07T09:16:51.426Z,3.38
2022-09-07T09:19:44.348Z,3.72
2022-09-07T09:22:22.292Z,3.97
2022-09-07T09:25:01.066Z,2.95
2022-09-07T09:27:27.455Z,3.47
2022-09-07T09:29:53.814Z,3.42
2022-09-07T09:32:39.892Z,3.53
2022-09-07T09:35:20.804Z,3.95
2022-09-07T09:37:47.236Z,3.70
2022-09-07T09:40:33.982Z,3.80
2022-09-07T09:43:04.816Z,4.30
2022-09-07T09:48:35.063Z,4.07
2022-09-07T09:53:55.015Z,4.03
2022-09-07T09:56:22.821Z,3.80
2022-09-07T09:59:05.119Z,3.90
2022-09-07T10:01:36.271Z,3.83
2022-09-07T10:04:24.837Z,3.65
2022-09-07T10:07:04.165Z,3.38
2022-09-07T10:09:39.429Z,3.53
2022-09-07T10:12:08.164Z,3.50
2022-09-07T10:14:45.283Z,3.88
2022-09-07T10:17:14.490Z,3.08
2022-09-07T10:19:42.741Z,3.15
2022-09-07T10:22:34.984Z,2.78
2022-09-07T10:25:03.980Z,3.28
2022-09-07T10:27:36.699Z,2.97
2022-09-07T10:30:11.005Z,2.90
2022-09-07T10:32:46.212Z,2.95
2022-09-07T10:35:25.189Z,3.17
2022-09-07T10:38:02.541Z,2.95
2022-09-07T10:40:49.131Z,2.70
2022-09-07T10:43:38.537Z,3.22
2022-09-07T10:46:14.722Z,2.80
2022-09-07T10:49:32.597Z,2.72
2022-09-07T10:52:24.052Z,2.40
2022-09-07T10:54:56.937Z,2.53
2022-09-07T10:57:32.521Z,2.58
2022-09-07T11:00:11.778Z,2.78
2022-09-07T11:03:24.877Z,2.72
2022-09-07T11:05:52.531Z,2.75
2022-09-07T11:09:15.171Z,2.50
2022-09-07T11:14:18.388Z,2.60
2022-09-07T11:17:02.032Z,2.25
2022-09-07T11:19:35.963Z,2.77
2022-09-07T11:22:21.510Z,2.15
2022-09-07T11:27:52.300Z,2.42
2022-09-07T11:30:21.600Z,2.83
2022-09-07T11:33:20.021Z,2.70
2022-09-07T11:35:59.576Z,2.90
2022-09-07T11:38:33.056Z,2.72
2022-09-07T11:41:19.563Z,2.50
2022-09-07T11:43:57.503Z,2.13
2022-09-07T11:46:32.492Z,2.85
2022-09-07T11:48:59.159Z,2.58
2022-09-07T11:51:41.714Z,2.25
2022-09-07T11:54:20.011Z,2.40
2022-09-07T11:56:52.099Z,2.15
2022-09-07T11:59:24.023Z,2.35
2022-09-07T12:02:18.040Z,2.30
2022-09-07T12:04:59.375Z,2.10
2022-09-07T12:07:51.828Z,2.50
2022-09-07T12:10:20.956Z,2.05
2022-09-07T12:13:05.116Z,1.80
2022-09-07T12:15:49.374Z,2.10
2022-09-07T12:18:31.116Z,2.00
2022-09-07T12:20:57.638Z,2.17
2022-09-07T12:23:31.267Z,2.28
2022-09-07T12:26:38.102Z,2.05
2022-09-07T12:29:18.663Z,2.13
2022-09-07T12:31:59.653Z,1.80
2022-09-07T12:34:33.442Z,1.75
2022-09-07T12:37:08.902Z,1.90
2022-09-07T12:39:41.386Z,2.25
2022-09-07T12:45:35.711Z,2.13
2022-09-07T12:48:17.086Z,1.95
2022-09-07T12:51:05.987Z,1.80
2022-09-07T12:54:09.844Z,1.80
2022-09-07T12:56:47.083Z,2.28
2022-09-07T12:59:31.926Z,2.15
2022-09-07T13:05:01.795Z,3.65
2022-09-07T13:08:14.395Z,3.05
2022-09-07T13:10:44.167Z,2.10
2022-09-07T13:16:28.521Z,1.88
2022-09-07T13:18:55.179Z,1.33
2022-09-07T13:21:36.212Z,1.58
2022-09-07T13:27:25.064Z,1.58
2022-09-07T13:29:57.466Z,2.00
2022-09-07T13:35:40.740Z,1.98
2022-09-07T13:38:11.882Z,2.22
2022-09-07T13:40:39.547Z,2.35
2022-09-07T13:43:06.483Z,2.10
2022-09-07T13:45:47.902Z,1.65
2022-09-07T13:48:35.637Z,2.20
2022-09-07T13:51:20.842Z,1.73
2022-09-07T13:53:56.117Z,1.90
2022-09-07T13:56:57.837Z,2.00
2022-09-07T13:59:27.999Z,1.80
2022-09-07T14:01:55.215Z,1.75
2022-09-07T14:04:23.418Z,1.70
2022-09-07T14:06:49.799Z,1.70
2022-09-07T14:09:18.643Z,1.60
2022-09-07T14:11:52.705Z,1.73
2022-09-07T14:14:22.929Z,1.90
2022-09-07T14:16:52.126Z,1.63
2022-09-07T14:19:21.646Z,2.00
2022-09-07T14:22:18.302Z,1.95
2022-09-07T14:24:49.748Z,1.80
2022-09-07T14:27:20.890Z,1.90
2022-09-07T14:29:47.319Z,1.80
2022-09-07T14:32:18.677Z,1.50
2022-09-07T14:34:45.547Z,2.03
2022-09-07T14:37:16.860Z,1.88
2022-09-07T14:39:53.028Z,1.70
2022-09-07T14:42:23.332Z,1.88
2022-09-07T14:44:50.205Z,1.98
2022-09-07T14:47:29.135Z,2.13
2022-09-07T14:49:58.090Z,1.80
2022-09-07T14:52:43.536Z,1.80
2022-09-07T14:55:29.384Z,1.55
2022-09-07T14:58:22.832Z,2.10
2022-09-07T15:03:40.845Z,2.20
2022-09-07T15:06:09.393Z,1.73
2022-09-07T15:08:45.427Z,1.70
2022-09-07T15:11:38.727Z,1.55
2022-09-07T15:14:07.836Z,1.90
2022-09-07T15:16:45.591Z,1.67
2022-09-07T15:19:18.481Z,2.08
2022-09-07T15:21:45.231Z,1.65
2022-09-07T15:24:11.911Z,1.60
2022-09-07T15:29:32.978Z,2.08
2022-09-07T15:32:04.891Z,1.80
2022-09-07T15:34:32.595Z,2.13
2022-09-07T15:37:01.044Z,1.85
2022-09-07T15:39:29.535Z,2.10
2022-09-07T15:41:56.580Z,2.15
2022-09-07T15:44:26.525Z,1.65
2022-09-07T15:49:47.476Z,2.00
2022-09-07T15:52:16.685Z,1.90
2022-09-07T15:54:43.443Z,2.10
2022-09-07T15:59:57.868Z,1.58
2022-09-07T16:05:10.860Z,2.55
2022-09-07T16:10:24.402Z,2.10
2022-09-07T16:15:47.373Z,2.08
2022-09-07T16:18:17.325Z,2.55
2022-09-07T16:20:44.340Z,2.10
2022-09-07T16:23:13.655Z,2.08
2022-09-07T16:25:42.181Z,2.80
2022-09-07T16:28:09.380Z,2.50
2022-09-07T16:30:39.054Z,2.10
2022-09-07T16:33:05.504Z,2.63
2022-09-07T16:35:32.834Z,2.15
2022-09-07T16:40:46.227Z,2.20
2022-09-07T16:43:12.581Z,2.22
2022-09-07T16:48:25.230Z,2.38
2022-09-07T16:51:00.286Z,1.50
2022-09-07T16:53:29.142Z,1.75
2022-09-07T16:56:06.865Z,1.40
2022-09-07T16:58:35.928Z,2.08
2022-09-07T17:01:03.069Z,1.40
2022-09-07T17:03:29.539Z,2.15
2022-09-07T17:05:55.976Z,2.15
2022-09-07T17:08:22.401Z,1.92
2022-09-07T17:10:48.739Z,2.20
2022-09-07T17:13:15.075Z,1.80
2022-09-07T17:15:41.470Z,2.50
2022-09-07T17:18:07.803Z,3.10
2022-09-07T17:20:34.295Z,4.07
2022-09-07T17:23:01.439Z,3.97
2022-09-07T17:25:28.277Z,4.32
2022-09-07T17:27:54.607Z,3.63
2022-09-07T17:30:21.617Z,2.95
2022-09-07T17:32:48.062Z,4.50
2022-09-07T17:35:14.450Z,3.80
2022-09-07T17:37:40.806Z,3.30
2022-09-07T17:40:07.901Z,3.03
2022-09-07T17:45:20.791Z,2.85
2022-09-07T17:47:49.356Z,2.70
2022-09-07T17:50:15.841Z,2.40
2022-09-07T17:52:45.891Z,2.50
2022-09-07T17:55:12.549Z,2.05
2022-09-07T17:57:38.942Z,2.30
2022-09-07T18:00:11.205Z,2.50
2022-09-07T18:02:38.139Z,2.35
2022-09-07T18:05:04.924Z,2.40
2022-09-07T18:07:32.246Z,2.50
2022-09-07T18:09:59.278Z,2.60
2022-09-07T18:12:25.668Z,2.53
2022-09-07T18:14:52.020Z,2.58
2022-09-07T18:17:18.375Z,2.47
2022-09-07T18:19:44.923Z,2.05
2022-09-07T18:22:11.291Z,2.15
2022-09-07T18:24:37.704Z,2.22
2022-09-07T18:27:04.164Z,2.75
2022-09-07T18:29:33.543Z,2.30
2022-09-07T18:32:08.227Z,2.47
2022-09-07T18:34:36.028Z,2.58
2022-09-07T18:37:02.589Z,2.35
2022-09-07T18:39:29.201Z,2.60
2022-09-07T18:41:55.623Z,2.28
2022-09-07T18:47:16.090Z,2.78
2022-09-07T18:49:47.758Z,2.55
2022-09-07T18:55:00.434Z,2.30
2022-09-07T18:57:26.828Z,2.20
2022-09-07T18:59:53.512Z,2.33
2022-09-07T19:02:20.052Z,2.40
2022-09-07T19:07:32.927Z,2.10
2022-09-07T19:09:59.302Z,2.40
2022-09-07T19:12:26.047Z,1.85
2022-09-07T19:14:52.470Z,2.35
2022-09-07T19:17:19.385Z,2.15
2022-09-07T19:19:45.794Z,2.22
2022-09-07T19:22:12.456Z,2.08
2022-09-07T19:24:38.884Z,2.42
2022-09-07T19:27:07.061Z,1.90
2022-09-07T19:29:33.424Z,2.20
2022-09-07T19:32:06.691Z,2.25
2022-09-07T19:34:34.399Z,2.28
2022-09-07T19:37:01.540Z,2.20
2022-09-07T19:39:28.019Z,2.30
2022-09-07T19:41:54.457Z,2.15
2022-09-07T19:44:20.996Z,2.67
2022-09-07T19:46:47.453Z,1.80
2022-09-07T19:49:14.028Z,2.25
2022-09-07T19:51:40.847Z,2.00
2022-09-07T19:54:09.804Z,2.35
2022-09-07T19:56:40.496Z,2.13
2022-09-07T19:59:07.244Z,2.03
2022-09-07T20:01:36.966Z,1.90
2022-09-07T20:04:17.442Z,1.90
2022-09-07T20:06:46.636Z,2.55
2022-09-07T20:09:15.690Z,1.75
2022-09-07T20:11:46.236Z,2.13
2022-09-07T20:14:13.341Z,1.90
2022-09-07T20:16:39.890Z,1.92
2022-09-07T20:19:07.191Z,1.83
2022-09-07T20:21:34.077Z,1.83
2022-09-07T20:24:00.467Z,1.70
2022-09-07T20:26:26.871Z,2.00
2022-09-07T20:29:10.969Z,2.13
2022-09-07T20:31:43.961Z,1.80
2022-09-07T20:34:10.938Z,1.77
2022-09-07T20:36:37.536Z,1.65
2022-09-07T20:39:04.592Z,1.73
2022-09-07T20:41:34.054Z,2.42
2022-09-07T20:44:02.183Z,1.90
2022-09-07T20:46:29.623Z,2.03
2022-09-07T20:48:56.170Z,2.00
2022-09-07T20:51:22.735Z,1.80
2022-09-07T20:53:50.008Z,1.75
2022-09-07T20:56:17.291Z,2.22
2022-09-07T20:58:44.695Z,2.28
2022-09-07T21:01:12.716Z,2.00
2022-09-07T21:03:39.971Z,2.30
2022-09-07T21:06:07.856Z,2.13
2022-09-07T21:08:36.122Z,2.40
2022-09-07T21:11:15.060Z,1.98
2022-09-07T21:13:41.793Z,2.20
2022-09-07T21:16:10.206Z,2.00
2022-09-07T21:18:37.339Z,1.95
2022-09-07T21:21:19.279Z,2.30
2022-09-07T21:23:46.958Z,1.90
2022-09-07T21:26:13.402Z,2.10
2022-09-07T21:28:39.842Z,1.98
2022-09-07T21:31:08.082Z,2.30
2022-09-07T21:33:36.090Z,2.13
2022-09-07T21:36:07.221Z,1.67
2022-09-07T21:38:34.784Z,2.30
2022-09-07T21:41:15.250Z,2.17
2022-09-07T21:43:43.029Z,2.10
2022-09-07T21:46:18.204Z,2.10
2022-09-07T21:48:45.663Z,1.98
2022-09-07T21:51:13.799Z,2.10
2022-09-07T21:53:40.948Z,1.90
2022-09-07T21:56:11.328Z,2.03
2022-09-07T21:58:40.112Z,2.22
2022-09-07T22:01:26.455Z,2.17
2022-09-07T22:03:58.463Z,1.77
2022-09-07T22:06:27.244Z,1.98
2022-09-07T22:08:54.418Z,2.10
2022-09-07T22:11:22.391Z,1.80
2022-09-07T22:13:49.260Z,1.85
2022-09-07T22:16:16.086Z,2.05
2022-09-07T22:18:44.035Z,2.25
2022-09-07T22:21:12.155Z,1.90
2022-09-07T22:23:41.278Z,1.85
2022-09-07T22:26:08.388Z,2.60
2022-09-07T22:28:36.908Z,2.53
2022-09-07T22:31:21.293Z,2.08
2022-09-07T22:33:48.902Z,2.75
2022-09-07T22:36:21.025Z,2.20
2022-09-07T22:38:49.578Z,2.00
2022-09-07T22:41:21.253Z,2.38
2022-09-07T22:43:50.919Z,2.00
2022-09-07T22:46:18.516Z,1.50
2022-09-07T22:48:45.011Z,2.03
2022-09-07T22:51:12.151Z,1.83
2022-09-07T22:53:40.394Z,1.83
2022-09-07T22:56:12.114Z,2.03
2022-09-07T22:58:38.621Z,1.88
2022-09-07T23:01:06.178Z,2.40
2022-09-07T23:03:33.964Z,2.08
2022-09-07T23:06:00.798Z,2.42
2022-09-07T23:08:27.840Z,2.63
2022-09-07T23:10:54.483Z,2.33
2022-09-07T23:13:21.193Z,1.90
2022-09-07T23:15:48.150Z,2.20
2022-09-07T23:18:14.916Z,1.95
2022-09-07T23:20:41.800Z,1.98
2022-09-07T23:23:09.142Z,1.98
2022-09-07T23:25:39.631Z,2.40
2022-09-07T23:28:07.286Z,2.63
2022-09-07T23:30:35.555Z,1.80
2022-09-07T23:33:02.710Z,2.22
2022-09-07T23:35:29.444Z,2.08
2022-09-07T23:37:59.091Z,1.75
2022-09-07T23:40:25.483Z,1.70
2022-09-07T23:42:52.791Z,2.00
2022-09-07T23:45:19.231Z,1.95
2022-09-07T23:47:45.674Z,2.05
2022-09-07T23:50:12.170Z,2.05
2022-09-07T23:52:38.604Z,2.35
2022-09-07T23:55:06.784Z,2.10
2022-09-07T23:57:33.214Z,2.03
